Observations for FIRENZE PERETOLA, Italy (LIRQ)

LIRQ 200750Z 04013G26KT 360V090 CAVOK 11/M00 Q1026  
LIRQ 200720Z 03009G21KT 350V080 CAVOK 10/M00 Q1026  
LIRQ 200650Z VRB08KT CAVOK 10/00 Q1026  
LIRQ 200620Z 04013G23KT 360V090 CAVOK 10/M01 Q1026  
LIRQ 200550Z 04013KT CAVOK 09/M01 Q1025 
LIRQ 200520Z 04013KT 360V070 CAVOK 09/M01 Q1025 
LIRQ 200450Z 05013G23KT 350V080 CAVOK 09/M01 Q1024  
LIRQ 200420Z 04011G21KT 350V070 CAVOK 09/M01 Q1024  
LIRQ 200350Z 03013KT CAVOK 09/M01 Q1024 
LIRQ 200320Z 03011KT 330V060 CAVOK 09/00 Q1024  
LIRQ 200250Z VRB05G16KT CAVOK 09/00 Q1024   
LIRQ 200220Z VRB03KT CAVOK 08/M00 Q1024 
LIRQ 200150Z VRB05KT CAVOK 09/00 Q1024  
LIRQ 200120Z 36006KT 260V060 CAVOK 09/M00 Q1024 
LIRQ 200050Z 03007KT 320V070 CAVOK 09/00 Q1025  
LIRQ 200020Z 02007KT 330V080 CAVOK 09/00 Q1025  
LIRQ 192350Z VRB06KT CAVOK 08/00 Q1024  
LIRQ 192320Z VRB04KT CAVOK 09/00 Q1024  
LIRQ 192250Z VRB05KT CAVOK 08/01 Q1024  
LIRQ 192220Z VRB05KT CAVOK 08/01 Q1024  
LIRQ 192150Z 08004KT 010V170 CAVOK 07/01 Q1024  
LIRQ 192120Z 09005KT 060V120 CAVOK 07/01 Q1024  
LIRQ 192050Z VRB03KT CAVOK 08/01 Q1024  
LIRQ 192020Z 09003KT 020V170 CAVOK 09/00 Q1023  
LIRQ 191950Z VRB04KT CAVOK 08/01 Q1023  
LIRQ 191920Z VRB02KT 9999 FEW040 08/01 Q1023
LIRQ 191850Z 03005KT 300V090 9999 FEW040 09/01 Q1023
LIRQ 191820Z VRB02G12KT 9999 FEW040 09/01 Q1023 
LIRQ 191750Z VRB03KT 9999 FEW040 09/01 Q1022
LIRQ 191720Z VRB03KT 9999 FEW040 10/01 Q1022
LIRQ 191650Z 01006KT 320V040 9999 FEW040 SCT060 10/01 Q1022 
LIRQ 191620Z 02009G19KT 350V060 9999 FEW045 SCT070 11/01 Q1021  
LIRQ 191550Z 02010KT 330V060 9999 FEW045 BKN070 11/02 Q1021 
LIRQ 191520Z 03007KT 340V090 9999 SCT045 SCT065 10/02 Q1021 
LIRQ 191450Z VRB06G18KT 9999 SCT040 SCT060 10/02 Q1021  
LIRQ 191420Z 03012KT 360V070 9999 BKN040 11/02 Q1021
LIRQ 191350Z VRB05KT 9999 SCT045 10/02 Q1021
LIRQ 191320Z VRB07KT 9999 BKN040 10/02 Q1021
LIRQ 191250Z VRB05KT 9999 BKN040 11/02 Q1021
LIRQ 191220Z VRB07KT 9999 BKN040 11/02 Q1021
LIRQ 191150Z 21006KT 180V290 9999 BKN040 10/02 Q1021
LIRQ 191120Z VRB05KT 9999 BKN040 10/02 Q1021
LIRQ 191050Z VRB03KT 9999 BKN040 10/02 Q1021
LIRQ 191020Z VRB04KT 9999 BKN040 11/02 Q1021
LIRQ 190950Z 04006KT 340V100 9999 BKN040 10/01 Q1020
LIRQ 190920Z 30007G17KT 230V040 9999 BKN040 10/01 Q1020 
LIRQ 190850Z 24006KT 190V330 9999 BKN040 10/01 Q1020 WS RWY 05  
LIRQ 190850Z 24006KT 190V330 9999 BKN040 10/01 Q1020 RMK WS RWY 05
LIRQ 190820Z VRB06G19KT 9999 BKN040 09/01 Q1020 WS RWY 05   
LIRQ 190820Z VRB06G19KT 9999 BKN040 09/01 Q1020 RMK WS RWY 05
LIRQ 190750Z 21007KT 150V250 9999 BKN040 09/01 Q1019
LIRQ 190720Z VRB04KT 9999 BKN040 09/01 Q1019